Time;durP1;ratioP1;P1;durP2;ratioP2;P2;SDS_P1;SDS_P2;PMS_P1;PMS_P2;Temp;Humidity;BMP_temperature;BMP_pressure;BME280_temperature;BME280_humidity;BME280_pressure;Samples;Min_cycle;Max_cycle;Signal;HPM_P1;HPM_P2
2022/03/22 07:42:30;;;;;;;23.00;11.48;;;;;;;;;;5125751;27;20619;-71
2022/03/22 07:44:59;;;;;;;19.60;12.15;;;;;;;;;;5139885;27;20046;-72
2022/03/22 07:47:25;;;;;;;17.48;11.32;;;;;;;;;;5145093;27;20035;-72
2022/03/22 07:55:21;;;;;;;25.33;13.38;;;;;;;;;;5147229;27;20478;-71
2022/03/22 07:57:48;;;;;;;20.35;12.18;;;;;;;;;;5146451;27;20033;-71
2022/03/22 08:00:15;;;;;;;16.75;12.13;;;;;;;;;;5146656;27;20042;-71
2022/03/22 08:03:03;;;;;;;16.15;11.85;;;;;;;;;;5146371;27;20031;-71
2022/03/22 08:05:31;;;;;;;22.25;12.25;;;;;;;;;;5146537;27;20368;-71
2022/03/22 08:07:59;;;;;;;17.42;11.43;;;;;;;;;;5129332;27;20030;-71
2022/03/22 08:10:26;;;;;;;20.70;12.32;;;;;;;;;;5125771;28;20042;-71
2022/03/22 08:12:53;;;;;;;16.55;11.57;;;;;;;;;;5126448;28;20015;-71
2022/03/22 08:15:18;;;;;;;16.83;12.18;;;;;;;;;;5147331;27;20369;-72
2022/03/22 08:17:45;;;;;;;17.80;12.27;;;;;;;;;;5143344;27;20062;-71
2022/03/22 08:20:12;;;;;;;17.02;11.70;;;;;;;;;;5129270;28;20032;-72
2022/03/22 08:22:52;;;;;;;17.65;12.05;;;;;;;;;;5123773;28;20078;-72
2022/03/22 08:25:24;;;;;;;18.95;11.52;;;;;;;;;;5125799;28;20034;-73
2022/03/22 08:27:51;;;;;;;19.30;11.60;;;;;;;;;;5125046;28;20027;-75
2022/03/22 08:30:21;;;;;;;18.85;12.68;;;;;;;;;;5111618;28;20028;-75
2022/03/22 08:32:51;;;;;;;16.77;11.45;;;;;;;;;;5106246;28;20026;-73
2022/03/22 08:35:18;;;;;;;21.53;13.23;;;;;;;;;;5107514;28;20381;-72
2022/03/22 08:37:45;;;;;;;18.70;11.30;;;;;;;;;;5117515;27;20032;-72
2022/03/22 08:40:13;;;;;;;14.80;10.88;;;;;;;;;;5124795;28;20031;-73
2022/03/22 08:42:43;;;;;;;17.98;10.73;;;;;;;;;;5120471;27;20038;-72
2022/03/22 08:45:11;;;;;;;16.40;11.10;;;;;;;;;;5120998;28;20031;-72
2022/03/22 08:47:37;;;;;;;17.80;10.68;;;;;;;;;;5120565;28;20027;-71
2022/03/22 08:50:05;;;;;;;18.02;10.88;;;;;;;;;;5122058;28;20039;-72
2022/03/22 08:52:32;;;;;;;14.60;10.43;;;;;;;;;;5119152;28;20090;-71
2022/03/22 08:54:58;;;;;;;15.50;10.23;;;;;;;;;;5109876;28;20484;-73
2022/03/22 08:57:24;;;;;;;16.95;10.68;;;;;;;;;;5111385;28;20034;-73
2022/03/22 08:59:49;;;;;;;23.50;11.88;;;;;;;;;;5111215;28;20043;-73
2022/03/22 09:02:15;;;;;;;13.93;10.23;;;;;;;;;;5111388;28;20110;-73
2022/03/22 09:07:26;;;;;;;16.10;10.65;;;;;;;;;;5111009;28;20032;-73
2022/03/22 09:09:52;;;;;;;17.73;11.07;;;;;;;;;;5111197;28;20023;-73
2022/03/22 09:12:17;;;;;;;14.07;10.60;;;;;;;;;;5111644;28;20564;-72
2022/03/22 09:14:43;;;;;;;16.17;11.38;;;;;;;;;;5106069;28;20075;-73
2022/03/22 09:17:09;;;;;;;14.55;10.73;;;;;;;;;;5111305;28;20066;-73
2022/03/22 09:19:36;;;;;;;18.00;10.48;;;;;;;;;;5110408;28;20028;-72
2022/03/22 09:22:05;;;;;;;19.20;11.15;;;;;;;;;;5110974;28;20030;-74
2022/03/22 09:24:33;;;;;;;17.75;10.68;;;;;;;;;;5110528;28;20042;-74
2022/03/22 09:26:59;;;;;;;18.00;12.52;;;;;;;;;;5109878;28;20023;-73
2022/03/22 09:29:25;;;;;;;20.55;13.77;;;;;;;;;;5110164;28;20424;-73
2022/03/22 09:31:51;;;;;;;22.48;10.60;;;;;;;;;;5110557;28;20019;-73
2022/03/22 09:34:17;;;;;;;20.67;11.00;;;;;;;;;;5110921;28;20432;-71
2022/03/22 09:36:43;;;;;;;15.10;9.85;;;;;;;;;;5109717;27;20067;-73
2022/03/22 09:39:09;;;;;;;17.67;10.63;;;;;;;;;;5110475;28;20031;-72
2022/03/22 09:41:37;;;;;;;15.32;10.38;;;;;;;;;;5109428;28;20031;-73
2022/03/22 09:44:04;;;;;;;18.20;11.05;;;;;;;;;;5115916;27;20038;-72
2022/03/22 09:46:32;;;;;;;17.42;10.43;;;;;;;;;;5129796;27;20031;-73
2022/03/22 09:48:58;;;;;;;16.10;10.07;;;;;;;;;;5130401;27;20030;-73
2022/03/22 09:54:18;;;;;;;16.35;9.48;;;;;;;;;;5130841;27;20042;-73
2022/03/22 09:56:45;;;;;;;17.00;9.93;;;;;;;;;;5130073;27;20031;-72
2022/03/22 09:59:14;;;;;;;14.32;9.75;;;;;;;;;;5130635;27;20027;-73
2022/03/22 10:01:40;;;;;;;14.63;9.50;;;;;;;;;;5114712;27;20593;-74
2022/03/22 10:04:09;;;;;;;17.02;10.32;;;;;;;;;;5108744;28;20043;-73
2022/03/22 10:06:35;;;;;;;15.55;9.88;;;;;;;;;;5103691;28;20020;-73
2022/03/22 10:09:05;;;;;;;14.80;9.90;;;;;;;;;;5088868;28;20092;-72
2022/03/22 10:11:35;;;;;;;15.77;9.82;;;;;;;;;;5088902;28;20384;-73
2022/03/22 10:14:01;;;;;;;13.57;10.10;;;;;;;;;;5093525;28;20577;-73
2022/03/22 10:16:27;;;;;;;20.00;9.63;;;;;;;;;;5109144;28;20622;-73
2022/03/22 10:18:53;;;;;;;14.70;9.88;;;;;;;;;;5104642;28;20111;-73
2022/03/22 10:21:19;;;;;;;14.25;9.95;;;;;;;;;;5107501;28;20030;-74
2022/03/22 10:23:53;;;;;;;14.77;9.38;;;;;;;;;;5105342;28;20035;-73
2022/03/22 10:26:20;;;;;;;14.85;9.20;;;;;;;;;;5105150;28;20028;-73
2022/03/22 10:28:51;;;;;;;14.52;9.18;;;;;;;;;;5108498;28;20039;-73
2022/03/22 10:31:17;;;;;;;14.45;9.63;;;;;;;;;;5109210;28;20495;-73
2022/03/22 10:33:51;;;;;;;16.65;9.82;;;;;;;;;;5108622;28;20024;-74
2022/03/22 10:36:21;;;;;;;16.90;9.75;;;;;;;;;;5106012;28;20043;-72
2022/03/22 10:38:59;;;;;;;14.35;8.88;;;;;;;;;;5098250;28;20399;-72
2022/03/22 10:41:30;;;;;;;15.80;9.77;;;;;;;;;;5104752;27;20031;-73
2022/03/22 10:44:04;;;;;;;14.52;9.27;;;;;;;;;;5107302;28;20034;-73
2022/03/22 10:46:30;;;;;;;15.93;9.73;;;;;;;;;;5107414;28;20415;-74
2022/03/22 10:49:09;;;;;;;15.38;10.00;;;;;;;;;;5108446;28;20026;-75
2022/03/22 10:51:42;;;;;;;17.77;10.23;;;;;;;;;;5107998;28;20491;-72
2022/03/22 10:54:12;;;;;;;15.38;10.10;;;;;;;;;;5108459;28;20035;-72
2022/03/22 10:56:50;;;;;;;15.90;9.35;;;;;;;;;;5091253;28;20373;-72
2022/03/22 10:59:18;;;;;;;18.23;9.90;;;;;;;;;;5107249;27;20035;-72
2022/03/22 11:01:46;;;;;;;13.05;9.98;;;;;;;;;;5106851;28;20543;-74
2022/03/22 11:04:16;;;;;;;15.30;9.27;;;;;;;;;;5107165;28;20046;-72
2022/03/22 11:06:47;;;;;;;15.80;9.55;;;;;;;;;;5107950;28;20480;-73
2022/03/22 11:09:24;;;;;;;12.57;8.82;;;;;;;;;;5108468;28;20035;-73
2022/03/22 11:11:50;;;;;;;13.35;9.00;;;;;;;;;;5108013;28;20491;-74
2022/03/22 11:14:17;;;;;;;14.32;9.65;;;;;;;;;;5108454;28;20040;-73
2022/03/22 11:16:48;;;;;;;15.05;9.68;;;;;;;;;;5107371;28;20032;-73
2022/03/22 11:19:16;;;;;;;14.27;9.98;;;;;;;;;;5108487;28;20046;-73
2022/03/22 11:21:42;;;;;;;14.02;10.20;;;;;;;;;;5108130;28;20020;-73
2022/03/22 11:24:10;;;;;;;15.35;9.77;;;;;;;;;;5108783;28;20047;-73
2022/03/22 11:26:47;;;;;;;14.95;10.73;;;;;;;;;;5107744;28;20500;-73
2022/03/22 11:29:15;;;;;;;17.15;10.90;;;;;;;;;;5108480;28;20031;-72
2022/03/22 11:31:42;;;;;;;17.67;10.32;;;;;;;;;;5107288;28;20046;-71
2022/03/22 11:34:09;;;;;;;17.25;10.10;;;;;;;;;;5106025;28;20032;-73
2022/03/22 11:36:43;;;;;;;14.35;10.23;;;;;;;;;;5107626;28;20026;-72
2022/03/22 11:39:10;;;;;;;17.05;9.82;;;;;;;;;;5100081;28;20023;-73
2022/03/22 11:44:37;;;;;;;15.70;10.55;;;;;;;;;;5108152;28;20040;-72
2022/03/22 11:47:09;;;;;;;15.18;10.18;;;;;;;;;;5106085;28;20023;-73
2022/03/22 11:50:01;;;;;;;16.48;10.48;;;;;;;;;;5106398;28;20040;-73
2022/03/22 11:52:32;;;;;;;22.27;10.77;;;;;;;;;;5110357;28;20024;-73
2022/03/22 11:55:01;;;;;;;13.10;9.57;;;;;;;;;;5108180;28;20028;-73
2022/03/22 11:57:39;;;;;;;14.10;10.23;;;;;;;;;;5107701;28;20028;-72
2022/03/22 12:00:05;;;;;;;14.95;9.73;;;;;;;;;;5109795;28;20054;-72
2022/03/22 12:02:32;;;;;;;13.23;9.63;;;;;;;;;;5110021;28;20039;-72
2022/03/22 12:04:58;;;;;;;13.50;10.40;;;;;;;;;;5110003;28;20036;-72
2022/03/22 12:07:27;;;;;;;13.63;9.80;;;;;;;;;;5109818;28;20024;-73
2022/03/22 12:10:13;;;;;;;14.03;10.20;;;;;;;;;;5101762;28;20028;-73
2022/03/22 12:12:42;;;;;;;15.13;10.13;;;;;;;;;;5088447;28;20039;-73
2022/03/22 12:15:11;;;;;;;14.20;10.35;;;;;;;;;;5094134;28;20034;-73
2022/03/22 12:17:38;;;;;;;16.20;9.88;;;;;;;;;;5109681;28;20023;-73
2022/03/22 12:20:15;;;;;;;12.68;9.55;;;;;;;;;;5106369;28;20391;-73
2022/03/22 12:22:43;;;;;;;15.95;10.07;;;;;;;;;;5107452;28;20062;-73
2022/03/22 12:25:12;;;;;;;18.65;10.27;;;;;;;;;;5109153;28;20039;-74
2022/03/22 12:28:01;;;;;;;14.27;9.70;;;;;;;;;;5110893;28;20038;-72
2022/03/22 12:30:32;;;;;;;14.90;10.25;;;;;;;;;;5113983;28;20297;-72
2022/03/22 12:33:02;;;;;;;14.80;9.50;;;;;;;;;;5111967;28;20034;-73
2022/03/22 12:35:28;;;;;;;14.43;10.18;;;;;;;;;;5113437;28;20034;-73
2022/03/22 12:37:55;;;;;;;15.23;9.40;;;;;;;;;;5111509;28;20054;-73
2022/03/22 12:40:22;;;;;;;13.18;9.50;;;;;;;;;;5113262;28;20023;-74
2022/03/22 12:42:52;;;;;;;13.45;9.88;;;;;;;;;;5113266;28;20024;-73
2022/03/22 12:45:19;;;;;;;14.48;9.93;;;;;;;;;;5113268;28;20027;-72
2022/03/22 12:47:48;;;;;;;15.13;10.27;;;;;;;;;;5111304;28;20480;-72
2022/03/22 12:50:15;;;;;;;12.88;10.23;;;;;;;;;;5112752;28;20047;-72
2022/03/22 12:52:41;;;;;;;14.75;10.30;;;;;;;;;;5113279;28;20047;-73
2022/03/22 12:55:09;;;;;;;15.93;9.18;;;;;;;;;;5113333;28;20028;-73
2022/03/22 12:57:40;;;;;;;14.73;10.15;;;;;;;;;;5109755;28;20020;-73
2022/03/22 13:00:07;;;;;;;11.95;9.07;;;;;;;;;;5102547;27;20408;-77
2022/03/22 13:02:36;;;;;;;13.85;10.40;;;;;;;;;;5106631;27;20051;-76
2022/03/22 13:05:03;;;;;;;13.67;9.73;;;;;;;;;;5114263;27;20047;-77
2022/03/22 13:07:29;;;;;;;16.30;13.05;;;;;;;;;;5112272;27;20031;-78
2022/03/22 13:12:45;;;;;;;14.27;9.43;;;;;;;;;;5114246;27;20480;-78
2022/03/22 13:15:14;;;;;;;12.20;9.52;;;;;;;;;;5110703;28;20031;-80
2022/03/22 13:17:45;;;;;;;13.60;9.40;;;;;;;;;;5109059;28;20059;-78
2022/03/22 13:20:17;;;;;;;12.30;9.68;;;;;;;;;;5110622;28;20027;-78
2022/03/22 13:23:06;;;;;;;13.50;10.05;;;;;;;;;;5110577;28;20456;-77
2022/03/22 13:25:37;;;;;;;13.75;10.07;;;;;;;;;;5111555;28;20039;-81
2022/03/22 13:28:13;;;;;;;13.88;9.77;;;;;;;;;;5112750;28;20418;-80
2022/03/22 13:30:45;;;;;;;15.15;9.98;;;;;;;;;;5111215;28;20031;-80
2022/03/22 13:33:16;;;;;;;13.68;9.65;;;;;;;;;;5108931;28;20036;-79
2022/03/22 13:35:59;;;;;;;13.70;9.57;;;;;;;;;;5125329;27;20038;-80
2022/03/22 13:38:27;;;;;;;11.95;9.68;;;;;;;;;;5109118;28;20032;-80
2022/03/22 13:40:57;;;;;;;17.40;9.75;;;;;;;;;;5111873;28;20503;-81
2022/03/22 13:43:27;;;;;;;17.20;10.05;;;;;;;;;;5109861;28;20023;-70
2022/03/22 13:46:02;;;;;;;11.77;9.18;;;;;;;;;;5113339;28;20046;-72
2022/03/22 13:48:29;;;;;;;13.60;9.00;;;;;;;;;;5112716;28;20023;-71
2022/03/22 13:50:56;;;;;;;12.27;9.48;;;;;;;;;;5110579;28;20617;-73
2022/03/22 13:53:25;;;;;;;11.43;8.80;;;;;;;;;;5110942;28;20031;-72
2022/03/22 13:56:07;;;;;;;12.68;8.98;;;;;;;;;;5110807;28;20032;-71
2022/03/22 13:58:41;;;;;;;14.80;8.73;;;;;;;;;;5112043;28;20027;-73
2022/03/22 14:01:13;;;;;;;18.77;8.98;;;;;;;;;;5094984;28;20030;-74
2022/03/22 14:03:40;;;;;;;11.52;7.93;;;;;;;;;;5097021;28;20019;-70
2022/03/22 14:06:06;;;;;;;12.48;8.00;;;;;;;;;;5111960;28;20039;-69
2022/03/22 14:08:33;;;;;;;10.55;7.72;;;;;;;;;;5111695;28;20488;-69
2022/03/22 14:11:00;;;;;;;11.32;8.18;;;;;;;;;;5108828;27;20499;-76
2022/03/22 14:13:31;;;;;;;11.00;7.40;;;;;;;;;;5111413;28;20019;-78
2022/03/22 14:15:58;;;;;;;12.15;7.47;;;;;;;;;;5111428;28;20027;-78
2022/03/22 14:18:24;;;;;;;10.55;8.13;;;;;;;;;;5111444;28;20034;-75
2022/03/22 14:20:51;;;;;;;14.60;8.52;;;;;;;;;;5108945;27;20038;-73
2022/03/22 14:23:17;;;;;;;12.07;7.15;;;;;;;;;;5111358;28;20126;-76
2022/03/22 14:25:43;;;;;;;13.18;7.85;;;;;;;;;;5109929;28;20043;-78
2022/03/22 14:28:09;;;;;;;14.68;8.07;;;;;;;;;;5109705;28;20031;-75
2022/03/22 14:30:38;;;;;;;12.30;7.82;;;;;;;;;;5104319;27;20142;-75
2022/03/22 14:33:09;;;;;;;13.73;7.82;;;;;;;;;;5107264;27;20038;-77
2022/03/22 14:35:53;;;;;;;11.57;7.53;;;;;;;;;;5106504;28;20044;-83
2022/03/22 14:38:31;;;;;;;11.20;7.53;;;;;;;;;;5104671;28;20081;-70
2022/03/22 14:41:22;;;;;;;12.00;7.60;;;;;;;;;;5103185;27;20121;-69
2022/03/22 14:43:48;;;;;;;14.77;7.60;;;;;;;;;;5109542;28;20034;-69
2022/03/22 14:46:14;;;;;;;13.38;8.05;;;;;;;;;;5109067;28;20040;-78
2022/03/22 14:48:40;;;;;;;8.77;6.90;;;;;;;;;;5112143;28;20027;-74
2022/03/22 14:51:06;;;;;;;10.70;7.90;;;;;;;;;;5102889;28;20508;-76
2022/03/22 14:59:01;;;;;;;10.60;7.57;;;;;;;;;;5110523;28;20027;-73
2022/03/22 15:01:30;;;;;;;14.20;7.70;;;;;;;;;;5104696;28;20023;-81
2022/03/22 15:03:57;;;;;;;10.18;7.47;;;;;;;;;;5108521;28;20066;-80
2022/03/22 15:06:23;;;;;;;10.25;7.43;;;;;;;;;;5096248;27;20024;-75
2022/03/22 15:08:49;;;;;;;11.65;7.57;;;;;;;;;;5105601;27;20032;-77
2022/03/22 15:11:16;;;;;;;10.40;6.95;;;;;;;;;;5105293;28;20562;-79
2022/03/22 15:13:42;;;;;;;12.38;7.38;;;;;;;;;;5100525;28;20024;-80
2022/03/22 15:16:11;;;;;;;12.82;7.60;;;;;;;;;;5108960;28;20404;-80
2022/03/22 15:18:37;;;;;;;11.93;7.97;;;;;;;;;;5103905;28;21790;-77
2022/03/22 15:21:04;;;;;;;13.32;7.60;;;;;;;;;;5107585;28;20034;-77
2022/03/22 15:23:30;;;;;;;12.68;7.85;;;;;;;;;;5108274;28;20027;-77
2022/03/22 15:25:56;;;;;;;10.10;7.18;;;;;;;;;;5108060;28;20036;-75
2022/03/22 15:28:25;;;;;;;11.07;7.60;;;;;;;;;;5102896;28;20485;-75
2022/03/22 15:30:51;;;;;;;11.32;7.55;;;;;;;;;;5106349;28;20106;-81
2022/03/22 15:33:20;;;;;;;11.18;7.43;;;;;;;;;;5105598;27;20059;-78
2022/03/22 15:35:47;;;;;;;11.32;7.70;;;;;;;;;;5101584;28;20407;-79
2022/03/22 15:38:15;;;;;;;11.63;7.82;;;;;;;;;;5105506;28;20031;-78
2022/03/22 15:40:44;;;;;;;13.13;7.93;;;;;;;;;;5106627;28;20035;-79
2022/03/22 15:43:11;;;;;;;10.23;7.47;;;;;;;;;;5105148;28;20024;-81
2022/03/22 15:45:38;;;;;;;12.43;7.85;;;;;;;;;;5102157;28;20033;-78
2022/03/22 15:48:04;;;;;;;12.45;7.43;;;;;;;;;;5105383;28;20039;-77
2022/03/22 15:50:31;;;;;;;12.50;7.70;;;;;;;;;;5103756;28;20031;-80
2022/03/22 15:53:02;;;;;;;12.65;7.60;;;;;;;;;;5106050;28;20186;-79
2022/03/22 15:55:29;;;;;;;11.20;7.28;;;;;;;;;;5106066;28;20040;-77
2022/03/22 15:57:56;;;;;;;12.45;7.45;;;;;;;;;;5108211;28;20031;-82
2022/03/22 16:00:24;;;;;;;12.43;7.95;;;;;;;;;;5096093;28;20024;-79
2022/03/22 16:02:51;;;;;;;10.95;7.60;;;;;;;;;;5089436;28;20028;-78
2022/03/22 16:05:17;;;;;;;11.48;7.68;;;;;;;;;;5090217;28;20043;-77
2022/03/22 16:07:43;;;;;;;14.10;8.05;;;;;;;;;;5091957;28;20028;-78
2022/03/22 16:10:10;;;;;;;12.23;7.55;;;;;;;;;;5106903;27;20032;-76
2022/03/22 16:12:36;;;;;;;13.52;7.13;;;;;;;;;;5104726;28;20027;-77
2022/03/22 16:15:02;;;;;;;12.43;7.15;;;;;;;;;;5120480;27;20031;-79
2022/03/22 16:17:29;;;;;;;9.90;7.07;;;;;;;;;;5132361;27;20026;-77
2022/03/22 16:19:55;;;;;;;11.20;7.35;;;;;;;;;;5133695;27;20026;-78
2022/03/22 16:22:21;;;;;;;13.00;7.15;;;;;;;;;;5131895;27;20047;-78
2022/03/22 16:24:48;;;;;;;11.05;7.25;;;;;;;;;;5130973;27;20403;-77
2022/03/22 16:27:15;;;;;;;10.27;7.13;;;;;;;;;;5133842;27;20039;-78
2022/03/22 16:29:41;;;;;;;13.35;8.27;;;;;;;;;;5098498;27;20024;-78
2022/03/22 16:32:07;;;;;;;11.65;7.47;;;;;;;;;;5091716;28;20106;-77
2022/03/22 16:37:17;;;;;;;12.23;7.70;;;;;;;;;;5091084;28;20028;-77
2022/03/22 16:39:44;;;;;;;13.05;8.10;;;;;;;;;;5091435;28;20044;-78
2022/03/22 16:42:12;;;;;;;23.02;7.85;;;;;;;;;;5091058;28;20043;-76
2022/03/22 16:44:43;;;;;;;12.65;7.53;;;;;;;;;;5091406;28;20059;-77
2022/03/22 16:47:11;;;;;;;19.23;8.05;;;;;;;;;;5090889;28;20020;-76
2022/03/22 16:49:39;;;;;;;18.52;11.30;;;;;;;;;;5090880;28;20039;-76
2022/03/22 16:52:06;;;;;;;26.42;14.23;;;;;;;;;;5091046;28;20028;-76
2022/03/22 16:54:33;;;;;;;17.92;10.02;;;;;;;;;;5102763;28;20034;-77
2022/03/22 16:57:00;;;;;;;19.98;10.25;;;;;;;;;;5109917;28;20031;-75
2022/03/22 16:59:29;;;;;;;13.38;8.77;;;;;;;;;;5110977;28;20127;-74
2022/03/22 17:01:55;;;;;;;13.60;8.25;;;;;;;;;;5111270;28;20031;-75
2022/03/22 17:04:21;;;;;;;14.63;8.63;;;;;;;;;;5110608;28;20022;-73
2022/03/22 17:06:48;;;;;;;14.02;8.65;;;;;;;;;;5110819;28;20032;-72
2022/03/22 17:09:14;;;;;;;13.02;8.00;;;;;;;;;;5110603;28;20035;-72
2022/03/22 17:11:41;;;;;;;15.43;8.10;;;;;;;;;;5111378;28;20027;-73
2022/03/22 17:14:07;;;;;;;15.50;9.02;;;;;;;;;;5110962;28;20035;-71
2022/03/22 17:16:33;;;;;;;14.75;8.82;;;;;;;;;;5111173;28;20023;-73
2022/03/22 17:19:04;;;;;;;14.52;8.95;;;;;;;;;;5111181;28;20027;-72
2022/03/22 17:21:32;;;;;;;13.73;9.43;;;;;;;;;;5109021;27;20600;-72
2022/03/22 17:24:03;;;;;;;14.18;8.82;;;;;;;;;;5093376;28;20032;-72
2022/03/22 17:26:29;;;;;;;16.80;9.68;;;;;;;;;;5119653;27;20031;-72
2022/03/22 17:28:56;;;;;;;17.38;9.77;;;;;;;;;;5129578;27;20027;-73
2022/03/22 17:31:24;;;;;;;23.67;11.15;;;;;;;;;;5118510;27;20039;-76
2022/03/22 17:33:52;;;;;;;17.67;9.07;;;;;;;;;;5110170;28;20499;-77
2022/03/22 17:36:23;;;;;;;37.35;23.15;;;;;;;;;;5110421;28;20066;-75
2022/03/22 17:38:49;;;;;;;;;;;;;;;;;;5110878;28;20034;-75
2022/03/22 17:41:16;;;;;;;18.10;10.63;;;;;;;;;;5110595;28;20303;-75
2022/03/22 17:43:43;;;;;;;21.20;10.23;;;;;;;;;;5108433;28;20032;-78
2022/03/22 17:46:10;;;;;;;29.25;9.93;;;;;;;;;;5110235;28;20476;-76
2022/03/22 17:48:36;;;;;;;47.80;26.83;;;;;;;;;;5109677;28;20460;-77
2022/03/22 17:51:03;;;;;;;17.08;10.90;;;;;;;;;;5106892;28;20389;-78
2022/03/22 17:53:29;;;;;;;31.00;11.40;;;;;;;;;;5108687;28;20023;-78
2022/03/22 17:55:56;;;;;;;20.48;10.93;;;;;;;;;;5104822;28;20039;-72
2022/03/22 17:58:23;;;;;;;25.35;10.43;;;;;;;;;;5107866;28;20059;-74
2022/03/22 18:00:51;;;;;;;19.27;10.30;;;;;;;;;;5109662;28;20047;-76
2022/03/22 18:03:17;;;;;;;21.30;10.25;;;;;;;;;;5110186;28;20376;-75
2022/03/22 18:05:47;;;;;;;22.55;11.15;;;;;;;;;;5109219;28;20043;-75
2022/03/22 18:08:13;;;;;;;27.73;11.60;;;;;;;;;;5104941;27;20023;-73
2022/03/22 18:10:39;;;;;;;23.17;10.93;;;;;;;;;;5108983;28;20028;-74
2022/03/22 18:13:05;;;;;;;17.58;9.73;;;;;;;;;;5109934;28;20145;-73
2022/03/22 18:15:31;;;;;;;17.30;10.32;;;;;;;;;;5109313;28;20472;-76
2022/03/22 18:17:58;;;;;;;17.35;10.38;;;;;;;;;;5109743;28;20139;-76
2022/03/22 18:20:25;;;;;;;17.30;10.20;;;;;;;;;;5109586;28;20027;-75
2022/03/22 18:22:51;;;;;;;17.55;9.55;;;;;;;;;;5109241;28;20392;-75
2022/03/22 18:25:18;;;;;;;15.48;10.02;;;;;;;;;;5107212;28;20024;-74
2022/03/22 18:27:50;;;;;;;17.92;10.25;;;;;;;;;;5108862;28;20019;-75
2022/03/22 18:30:16;;;;;;;15.82;9.75;;;;;;;;;;5109716;28;20024;-75
2022/03/22 18:32:43;;;;;;;16.70;9.85;;;;;;;;;;5108955;28;20026;-72
2022/03/22 18:35:12;;;;;;;15.80;10.07;;;;;;;;;;5104795;28;20039;-74
2022/03/22 18:37:39;;;;;;;16.67;10.68;;;;;;;;;;5102330;28;20581;-75
2022/03/22 18:40:06;;;;;;;41.22;24.23;;;;;;;;;;5109241;28;20031;-74
2022/03/22 18:42:35;;;;;;;33.90;22.35;;;;;;;;;;5108887;28;20050;-75
2022/03/22 18:45:05;;;;;;;30.52;17.20;;;;;;;;;;5101253;27;20055;-75
2022/03/22 18:47:33;;;;;;;18.70;11.10;;;;;;;;;;5110419;27;20027;-75
2022/03/22 18:50:00;;;;;;;17.75;10.43;;;;;;;;;;5102292;28;20484;-77
2022/03/22 18:52:26;;;;;;;18.02;9.88;;;;;;;;;;5105057;28;20035;-77
2022/03/22 18:54:52;;;;;;;19.10;11.07;;;;;;;;;;5106969;28;20480;-78
2022/03/22 18:57:19;;;;;;;21.25;10.55;;;;;;;;;;5109285;28;20589;-76
2022/03/22 18:59:45;;;;;;;18.67;10.38;;;;;;;;;;5103848;28;20035;-77
2022/03/22 19:02:11;;;;;;;18.13;10.25;;;;;;;;;;5105638;28;20031;-75
2022/03/22 19:04:37;;;;;;;17.90;10.43;;;;;;;;;;5103864;28;21426;-78
2022/03/22 19:07:04;;;;;;;20.88;10.73;;;;;;;;;;5108735;28;20042;-78
2022/03/22 19:09:30;;;;;;;18.95;10.57;;;;;;;;;;5105113;27;20088;-76
2022/03/22 19:11:56;;;;;;;18.10;10.80;;;;;;;;;;5108785;28;20262;-78
2022/03/22 19:14:22;;;;;;;20.02;11.38;;;;;;;;;;5109195;28;20027;-79
2022/03/22 19:19:35;;;;;;;22.23;11.32;;;;;;;;;;5109272;28;20035;-78
2022/03/22 19:22:03;;;;;;;17.58;10.23;;;;;;;;;;5114719;27;20024;-77
2022/03/22 19:24:32;;;;;;;18.63;10.30;;;;;;;;;;5111340;27;20496;-80
2022/03/22 19:26:58;;;;;;;21.02;10.82;;;;;;;;;;5109500;28;20042;-77
2022/03/22 19:29:24;;;;;;;16.15;9.75;;;;;;;;;;5106689;28;20495;-79
2022/03/22 19:34:34;;;;;;;15.20;10.13;;;;;;;;;;5107864;28;20023;-77
2022/03/22 19:37:00;;;;;;;16.15;9.95;;;;;;;;;;5102913;28;20385;-78
2022/03/22 19:39:27;;;;;;;17.15;10.20;;;;;;;;;;5105430;28;20032;-76
2022/03/22 19:41:53;;;;;;;19.70;11.48;;;;;;;;;;5100286;28;20039;-77
2022/03/22 19:44:19;;;;;;;23.88;10.85;;;;;;;;;;5108385;28;20035;-78
2022/03/22 19:46:45;;;;;;;17.85;10.63;;;;;;;;;;5107904;28;20024;-77
2022/03/22 19:49:14;;;;;;;47.40;26.90;;;;;;;;;;5106846;28;20031;-76
2022/03/22 19:51:41;;;;;;;24.50;15.70;;;;;;;;;;5106216;28;20028;-75
2022/03/22 19:54:07;;;;;;;17.60;11.07;;;;;;;;;;5105040;28;20054;-76
2022/03/22 19:56:35;;;;;;;15.30;10.43;;;;;;;;;;5105791;28;20019;-76
2022/03/22 19:59:02;;;;;;;18.05;10.18;;;;;;;;;;5107958;28;20054;-76
2022/03/22 20:01:29;;;;;;;19.52;10.55;;;;;;;;;;5107494;28;20028;-75
2022/03/22 20:03:54;;;;;;;19.20;10.45;;;;;;;;;;5108157;28;20024;-76
2022/03/22 20:06:21;;;;;;;17.75;10.40;;;;;;;;;;5102716;28;20059;-77
2022/03/22 20:08:47;;;;;;;20.58;11.35;;;;;;;;;;5100799;28;20050;-76
2022/03/22 20:11:13;;;;;;;18.60;11.75;;;;;;;;;;5104246;28;20022;-77
2022/03/22 20:13:45;;;;;;;16.42;10.50;;;;;;;;;;5107480;28;20028;-76
2022/03/22 20:16:13;;;;;;;18.05;10.60;;;;;;;;;;5102068;28;20035;-76
2022/03/22 20:18:40;;;;;;;21.95;11.27;;;;;;;;;;5107190;28;20020;-74
2022/03/22 20:21:07;;;;;;;22.33;12.35;;;;;;;;;;5099655;28;20407;-74
2022/03/22 20:23:34;;;;;;;22.48;12.00;;;;;;;;;;5107578;28;20408;-76
2022/03/22 20:26:00;;;;;;;17.45;11.20;;;;;;;;;;5106700;28;20024;-75
2022/03/22 20:28:26;;;;;;;19.70;11.88;;;;;;;;;;5100701;28;20051;-75
2022/03/22 20:30:52;;;;;;;42.40;24.52;;;;;;;;;;5108150;28;20051;-75
2022/03/22 20:33:18;;;;;;;43.92;24.08;;;;;;;;;;5108044;28;20513;-74
2022/03/22 20:35:44;;;;;;;24.17;13.43;;;;;;;;;;5107700;28;20042;-76
2022/03/22 20:38:11;;;;;;;23.25;12.05;;;;;;;;;;5105574;28;20031;-77
2022/03/22 20:40:38;;;;;;;21.25;12.55;;;;;;;;;;5107072;28;20034;-75
2022/03/22 20:43:06;;;;;;;21.67;12.35;;;;;;;;;;5104414;28;20024;-75
2022/03/22 20:45:33;;;;;;;23.27;11.55;;;;;;;;;;5107452;28;20055;-76
2022/03/22 20:47:59;;;;;;;19.55;11.93;;;;;;;;;;5107677;28;20030;-74
2022/03/22 20:50:26;;;;;;;18.88;11.30;;;;;;;;;;5110006;28;20031;-77
2022/03/22 20:52:53;;;;;;;19.48;11.77;;;;;;;;;;5110074;28;20461;-78
2022/03/22 20:55:19;;;;;;;22.60;11.75;;;;;;;;;;5118665;28;20023;-78
2022/03/22 21:00:30;;;;;;;21.30;11.95;;;;;;;;;;5110380;28;20027;-75
2022/03/22 21:02:57;;;;;;;21.73;12.00;;;;;;;;;;5111153;28;20137;-76
2022/03/22 21:05:24;;;;;;;20.00;11.77;;;;;;;;;;5103073;28;20054;-75
2022/03/22 21:07:50;;;;;;;20.73;11.88;;;;;;;;;;5110802;28;20024;-75
2022/03/22 21:10:16;;;;;;;20.52;11.63;;;;;;;;;;5111098;28;20035;-74
2022/03/22 21:12:42;;;;;;;23.75;12.60;;;;;;;;;;5110928;28;20019;-74
2022/03/22 21:15:08;;;;;;;19.15;11.73;;;;;;;;;;5111203;28;20051;-75
2022/03/22 21:17:34;;;;;;;20.15;12.13;;;;;;;;;;5108961;28;20038;-75
2022/03/22 21:20:01;;;;;;;20.10;11.77;;;;;;;;;;5111060;28;20028;-75
2022/03/22 21:22:29;;;;;;;22.67;11.65;;;;;;;;;;5110399;28;20054;-73
2022/03/22 21:24:56;;;;;;;20.33;12.15;;;;;;;;;;5110784;28;20026;-74
2022/03/22 21:27:22;;;;;;;28.30;13.57;;;;;;;;;;5110362;28;20487;-74
2022/03/22 21:29:48;;;;;;;22.02;12.32;;;;;;;;;;5104777;28;20400;-71
2022/03/22 21:32:14;;;;;;;26.05;13.13;;;;;;;;;;5103089;28;20031;-73
2022/03/22 21:34:43;;;;;;;26.05;11.98;;;;;;;;;;5105188;28;20130;-74
2022/03/22 21:37:10;;;;;;;20.20;11.30;;;;;;;;;;5108674;27;20024;-73
2022/03/22 21:39:36;;;;;;;19.35;11.80;;;;;;;;;;5110433;28;20391;-74
2022/03/22 21:42:03;;;;;;;21.52;11.70;;;;;;;;;;5112049;28;20051;-73
2022/03/22 21:44:30;;;;;;;22.65;11.43;;;;;;;;;;5109299;28;20027;-73
2022/03/22 21:46:56;;;;;;;19.17;11.40;;;;;;;;;;5112410;28;20391;-73
2022/03/22 21:49:22;;;;;;;19.30;11.75;;;;;;;;;;5112561;28;20027;-73
2022/03/22 21:51:48;;;;;;;20.55;11.07;;;;;;;;;;5112560;28;20036;-73
2022/03/22 21:54:13;;;;;;;18.88;10.93;;;;;;;;;;5112532;28;20047;-73
2022/03/22 21:56:39;;;;;;;19.52;10.98;;;;;;;;;;5112384;28;20055;-73
2022/03/22 21:59:05;;;;;;;19.50;11.10;;;;;;;;;;5110483;28;20077;-73
2022/03/22 22:01:35;;;;;;;21.60;11.20;;;;;;;;;;5112288;28;20360;-73
2022/03/22 22:04:03;;;;;;;24.73;11.25;;;;;;;;;;5111931;28;20384;-73
2022/03/22 22:06:29;;;;;;;21.65;11.35;;;;;;;;;;5112058;28;20036;-73
2022/03/22 22:08:55;;;;;;;26.90;11.70;;;;;;;;;;5112025;28;20043;-73
2022/03/22 22:11:21;;;;;;;21.05;12.32;;;;;;;;;;5110557;28;20027;-73
2022/03/22 22:13:48;;;;;;;23.95;11.90;;;;;;;;;;5111722;28;20051;-72
2022/03/22 22:16:14;;;;;;;19.88;11.25;;;;;;;;;;5109904;28;20049;-73
2022/03/22 22:18:40;;;;;;;23.60;11.70;;;;;;;;;;5110860;28;20020;-73
2022/03/22 22:21:06;;;;;;;22.20;11.48;;;;;;;;;;5111647;28;20413;-73
2022/03/22 22:23:32;;;;;;;21.52;11.07;;;;;;;;;;5111780;28;20079;-73
2022/03/22 22:25:58;;;;;;;23.63;12.20;;;;;;;;;;5109775;28;20239;-73
2022/03/22 22:28:24;;;;;;;22.52;11.52;;;;;;;;;;5091362;28;20066;-73
2022/03/22 22:30:50;;;;;;;20.52;11.65;;;;;;;;;;5091167;28;20024;-72
2022/03/22 22:36:00;;;;;;;25.70;12.70;;;;;;;;;;5091171;28;20031;-72
2022/03/22 22:38:26;;;;;;;23.42;12.77;;;;;;;;;;5091055;28;20055;-73
2022/03/22 22:40:52;;;;;;;23.13;11.35;;;;;;;;;;5090847;28;20066;-72
2022/03/22 22:43:17;;;;;;;22.10;12.15;;;;;;;;;;5090870;28;20056;-72
2022/03/22 22:45:43;;;;;;;20.40;12.07;;;;;;;;;;5090872;28;20459;-72